sensor_id;sensor_type;location;lat;lon;timestamp;pressure;altitude;pressure_sealevel;temperature;humidity
53719;BME280;39616;48.872;9.390;2022-12-20T00:00:20;98913.56;;;2.90;100.00
53719;BME280;39616;48.872;9.390;2022-12-20T00:02:51;98891.44;;;2.83;100.00
53719;BME280;39616;48.872;9.390;2022-12-20T00:05:22;98905.53;;;2.79;100.00
53719;BME280;39616;48.872;9.390;2022-12-20T00:07:52;98917.19;;;2.73;100.00
53719;BME280;39616;48.872;9.390;2022-12-20T00:10:22;98910.28;;;2.65;100.00
53719;BME280;39616;48.872;9.390;2022-12-20T00:12:53;98900.16;;;2.55;100.00
53719;BME280;39616;48.872;9.390;2022-12-20T00:15:24;98888.28;;;2.51;100.00
53719;BME280;39616;48.872;9.390;2022-12-20T00:17:54;98889.91;;;2.52;100.00
53719;BME280;39616;48.872;9.390;2022-12-20T00:20:25;98890.25;;;2.56;100.00
53719;BME280;39616;48.872;9.390;2022-12-20T00:22:55;98888.84;;;2.53;100.00
53719;BME280;39616;48.872;9.390;2022-12-20T00:25:26;98888.63;;;2.55;100.00
53719;BME280;39616;48.872;9.390;2022-12-20T00:27:56;98877.69;;;2.56;100.00
53719;BME280;39616;48.872;9.390;2022-12-20T00:30:26;98879.91;;;2.59;100.00
53719;BME280;39616;48.872;9.390;2022-12-20T00:32:57;98874.53;;;2.59;100.00
53719;BME280;39616;48.872;9.390;2022-12-20T00:35:28;98863.22;;;2.57;100.00
53719;BME280;39616;48.872;9.390;2022-12-20T00:37:58;98857.53;;;2.54;100.00
53719;BME280;39616;48.872;9.390;2022-12-20T00:40:28;98851.97;;;2.55;100.00
53719;BME280;39616;48.872;9.390;2022-12-20T00:42:59;98855.09;;;2.64;100.00
53719;BME280;39616;48.872;9.390;2022-12-20T00:45:29;98861.75;;;2.73;100.00
53719;BME280;39616;48.872;9.390;2022-12-20T00:47:59;98861.75;;;2.73;100.00
53719;BME280;39616;48.872;9.390;2022-12-20T00:50:30;98862.81;;;2.84;100.00
53719;BME280;39616;48.872;9.390;2022-12-20T00:53:00;98865.25;;;2.85;100.00
53719;BME280;39616;48.872;9.390;2022-12-20T00:55:30;98868.63;;;2.81;100.00
53719;BME280;39616;48.872;9.390;2022-12-20T00:58:01;98871.16;;;2.76;100.00
53719;BME280;39616;48.872;9.390;2022-12-20T01:00:31;98873.97;;;2.69;100.00
53719;BME280;39616;48.872;9.390;2022-12-20T01:03:01;98862.22;;;2.70;100.00
53719;BME280;39616;48.872;9.390;2022-12-20T01:05:32;98865.47;;;2.72;100.00
53719;BME280;39616;48.872;9.390;2022-12-20T01:08:03;98876.53;;;2.76;100.00
53719;BME280;39616;48.872;9.390;2022-12-20T01:10:33;98857.78;;;2.76;100.00
53719;BME280;39616;48.872;9.390;2022-12-20T01:13:04;98850.91;;;2.68;100.00
53719;BME280;39616;48.872;9.390;2022-12-20T01:15:34;98854.28;;;2.63;100.00
53719;BME280;39616;48.872;9.390;2022-12-20T01:18:04;98847.19;;;2.69;100.00
53719;BME280;39616;48.872;9.390;2022-12-20T01:20:35;98856.25;;;2.56;100.00
53719;BME280;39616;48.872;9.390;2022-12-20T01:23:05;98865.44;;;2.49;100.00
53719;BME280;39616;48.872;9.390;2022-12-20T01:25:35;98874.75;;;2.46;100.00
53719;BME280;39616;48.872;9.390;2022-12-20T01:28:08;98879.06;;;2.47;100.00
53719;BME280;39616;48.872;9.390;2022-12-20T01:30:40;98879.06;;;2.47;100.00
53719;BME280;39616;48.872;9.390;2022-12-20T01:33:11;98880.44;;;2.50;100.00
53719;BME280;39616;48.872;9.390;2022-12-20T01:35:41;98878.22;;;2.47;100.00
53719;BME280;39616;48.872;9.390;2022-12-20T01:38:11;98877.91;;;2.43;100.00
53719;BME280;39616;48.872;9.390;2022-12-20T01:40:42;98876.25;;;2.42;100.00
53719;BME280;39616;48.872;9.390;2022-12-20T01:43:13;98865.34;;;2.44;100.00
53719;BME280;39616;48.872;9.390;2022-12-20T01:45:44;98858.56;;;2.41;100.00
53719;BME280;39616;48.872;9.390;2022-12-20T01:48:21;98849.13;;;2.38;100.00
53719;BME280;39616;48.872;9.390;2022-12-20T01:50:53;98858.47;;;2.36;100.00
53719;BME280;39616;48.872;9.390;2022-12-20T01:53:23;98847.16;;;2.34;100.00
53719;BME280;39616;48.872;9.390;2022-12-20T01:55:54;98846.56;;;2.32;100.00
53719;BME280;39616;48.872;9.390;2022-12-20T01:58:24;98838.53;;;2.32;100.00
53719;BME280;39616;48.872;9.390;2022-12-20T02:00:55;98842.84;;;2.33;100.00
53719;BME280;39616;48.872;9.390;2022-12-20T02:03:26;98846.25;;;2.40;100.00
53719;BME280;39616;48.872;9.390;2022-12-20T02:05:56;98840.44;;;2.43;100.00
53719;BME280;39616;48.872;9.390;2022-12-20T02:08:27;98828.22;;;2.47;100.00
53719;BME280;39616;48.872;9.390;2022-12-20T02:11:25;98829.94;;;2.53;100.00
53719;BME280;39616;48.872;9.390;2022-12-20T02:17:02;98837.97;;;2.53;100.00
53719;BME280;39616;48.872;9.390;2022-12-20T02:22:51;98817.97;;;2.67;100.00
53719;BME280;39616;48.872;9.390;2022-12-20T02:28:15;98802.94;;;2.66;100.00
53719;BME280;39616;48.872;9.390;2022-12-20T02:30:51;98813.63;;;2.90;100.00
53719;BME280;39616;48.872;9.390;2022-12-20T02:33:25;98803.97;;;2.89;100.00
53719;BME280;39616;48.872;9.390;2022-12-20T02:35:57;98805.03;;;2.88;100.00
53719;BME280;39616;48.872;9.390;2022-12-20T02:38:30;98807.03;;;2.81;100.00
53719;BME280;39616;48.872;9.390;2022-12-20T02:41:32;98805.63;;;2.78;100.00
53719;BME280;39616;48.872;9.390;2022-12-20T02:44:09;98789.09;;;2.70;100.00
53719;BME280;39616;48.872;9.390;2022-12-20T02:47:00;98780.69;;;2.78;100.00
53719;BME280;39616;48.872;9.390;2022-12-20T02:49:34;98791.66;;;2.76;100.00
53719;BME280;39616;48.872;9.390;2022-12-20T02:52:08;98794.34;;;2.76;100.00
53719;BME280;39616;48.872;9.390;2022-12-20T02:54:39;98788.84;;;2.71;100.00
53719;BME280;39616;48.872;9.390;2022-12-20T02:57:17;98777.56;;;2.69;100.00
53719;BME280;39616;48.872;9.390;2022-12-20T03:00:01;98789.09;;;2.58;100.00
53719;BME280;39616;48.872;9.390;2022-12-20T03:02:33;98791.28;;;2.49;100.00
53719;BME280;39616;48.872;9.390;2022-12-20T03:05:25;98782.69;;;2.47;100.00
53719;BME280;39616;48.872;9.390;2022-12-20T03:07:56;98789.88;;;2.47;100.00
53719;BME280;39616;48.872;9.390;2022-12-20T03:10:26;98787.81;;;2.37;100.00
53719;BME280;39616;48.872;9.390;2022-12-20T03:12:57;98783.00;;;2.27;100.00
53719;BME280;39616;48.872;9.390;2022-12-20T03:15:27;98775.59;;;2.17;100.00
53719;BME280;39616;48.872;9.390;2022-12-20T03:17:57;98773.47;;;2.20;100.00
53719;BME280;39616;48.872;9.390;2022-12-20T03:20:28;98770.00;;;2.19;100.00
53719;BME280;39616;48.872;9.390;2022-12-20T03:22:58;98773.81;;;2.23;100.00
53719;BME280;39616;48.872;9.390;2022-12-20T03:25:29;98766.50;;;2.30;100.00
53719;BME280;39616;48.872;9.390;2022-12-20T03:27:59;98764.78;;;2.36;100.00
53719;BME280;39616;48.872;9.390;2022-12-20T03:30:29;98767.56;;;2.53;100.00
53719;BME280;39616;48.872;9.390;2022-12-20T03:32:59;98764.78;;;2.48;100.00
53719;BME280;39616;48.872;9.390;2022-12-20T03:35:30;98759.19;;;2.37;100.00
53719;BME280;39616;48.872;9.390;2022-12-20T03:38:00;98768.47;;;2.35;100.00
53719;BME280;39616;48.872;9.390;2022-12-20T03:40:31;98760.34;;;2.30;100.00
53719;BME280;39616;48.872;9.390;2022-12-20T03:43:01;98755.44;;;2.27;100.00
53719;BME280;39616;48.872;9.390;2022-12-20T03:45:31;98743.94;;;2.26;100.00
53719;BME280;39616;48.872;9.390;2022-12-20T03:48:01;98747.78;;;2.30;100.00
53719;BME280;39616;48.872;9.390;2022-12-20T03:50:32;98764.78;;;2.36;100.00
53719;BME280;39616;48.872;9.390;2022-12-20T03:53:03;98770.47;;;2.39;100.00
53719;BME280;39616;48.872;9.390;2022-12-20T03:55:34;98777.81;;;2.44;100.00
53719;BME280;39616;48.872;9.390;2022-12-20T03:58:04;98759.06;;;2.44;100.00
53719;BME280;39616;48.872;9.390;2022-12-20T04:00:34;98755.94;;;2.47;100.00
53719;BME280;39616;48.872;9.390;2022-12-20T04:03:04;98754.41;;;2.51;100.00
53719;BME280;39616;48.872;9.390;2022-12-20T04:05:35;98750.09;;;2.50;100.00
53719;BME280;39616;48.872;9.390;2022-12-20T04:08:05;98754.41;;;2.39;100.00
53719;BME280;39616;48.872;9.390;2022-12-20T04:10:35;98746.50;;;2.33;100.00
53719;BME280;39616;48.872;9.390;2022-12-20T04:13:28;98748.00;;;2.29;100.00
53719;BME280;39616;48.872;9.390;2022-12-20T04:15:58;98736.72;;;2.27;100.00
53719;BME280;39616;48.872;9.390;2022-12-20T04:18:28;98738.34;;;2.28;100.00
53719;BME280;39616;48.872;9.390;2022-12-20T04:21:00;98734.13;;;2.32;100.00
53719;BME280;39616;48.872;9.390;2022-12-20T04:23:30;98733.22;;;2.38;100.00
53719;BME280;39616;48.872;9.390;2022-12-20T04:26:01;98731.72;;;2.42;100.00
53719;BME280;39616;48.872;9.390;2022-12-20T04:28:33;98724.38;;;2.49;100.00
53719;BME280;39616;48.872;9.390;2022-12-20T04:31:03;98713.78;;;2.54;100.00
53719;BME280;39616;48.872;9.390;2022-12-20T04:33:33;98721.81;;;2.54;100.00
53719;BME280;39616;48.872;9.390;2022-12-20T04:36:04;98724.59;;;2.59;100.00
53719;BME280;39616;48.872;9.390;2022-12-20T04:38:35;98719.25;;;2.59;100.00
53719;BME280;39616;48.872;9.390;2022-12-20T04:41:05;98730.56;;;2.61;100.00
53719;BME280;39616;48.872;9.390;2022-12-20T04:43:36;98738.09;;;2.64;100.00
53719;BME280;39616;48.872;9.390;2022-12-20T04:46:06;98736.81;;;2.67;100.00
53719;BME280;39616;48.872;9.390;2022-12-20T04:48:37;98731.22;;;2.69;100.00
53719;BME280;39616;48.872;9.390;2022-12-20T04:51:09;98714.69;;;2.72;100.00
53719;BME280;39616;48.872;9.390;2022-12-20T04:53:39;98718.16;;;2.72;100.00
53719;BME280;39616;48.872;9.390;2022-12-20T04:56:24;98708.97;;;2.68;100.00
53719;BME280;39616;48.872;9.390;2022-12-20T04:58:57;98715.19;;;2.45;100.00
53719;BME280;39616;48.872;9.390;2022-12-20T05:01:27;98711.81;;;2.38;100.00
53719;BME280;39616;48.872;9.390;2022-12-20T05:03:58;98707.75;;;2.24;100.00
53719;BME280;39616;48.872;9.390;2022-12-20T05:06:28;98698.78;;;2.18;100.00
53719;BME280;39616;48.872;9.390;2022-12-20T05:08:58;98695.19;;;2.12;100.00
53719;BME280;39616;48.872;9.390;2022-12-20T05:11:29;98709.16;;;2.14;100.00
53719;BME280;39616;48.872;9.390;2022-12-20T05:13:59;98696.94;;;2.07;100.00
53719;BME280;39616;48.872;9.390;2022-12-20T05:16:29;98690.19;;;2.04;100.00
53719;BME280;39616;48.872;9.390;2022-12-20T05:18:59;98688.78;;;2.02;100.00
53719;BME280;39616;48.872;9.390;2022-12-20T05:21:32;98678.31;;;2.00;100.00
53719;BME280;39616;48.872;9.390;2022-12-20T05:24:20;98667.50;;;2.07;100.00
53719;BME280;39616;48.872;9.390;2022-12-20T05:27:09;98679.00;;;2.19;100.00
53719;BME280;39616;48.872;9.390;2022-12-20T05:29:39;98682.63;;;2.25;100.00
53719;BME280;39616;48.872;9.390;2022-12-20T05:32:10;98689.25;;;2.34;100.00
53719;BME280;39616;48.872;9.390;2022-12-20T05:34:40;98679.69;;;2.38;100.00
53719;BME280;39616;48.872;9.390;2022-12-20T05:37:10;98671.06;;;2.48;100.00
53719;BME280;39616;48.872;9.390;2022-12-20T05:39:40;98667.91;;;2.62;100.00
53719;BME280;39616;48.872;9.390;2022-12-20T05:42:11;98669.63;;;2.80;100.00
53719;BME280;39616;48.872;9.390;2022-12-20T05:44:41;98671.22;;;2.81;100.00
53719;BME280;39616;48.872;9.390;2022-12-20T05:47:11;98666.31;;;2.90;100.00
53719;BME280;39616;48.872;9.390;2022-12-20T05:49:42;98674.81;;;2.87;100.00
53719;BME280;39616;48.872;9.390;2022-12-20T05:52:12;98673.06;;;2.93;100.00
53719;BME280;39616;48.872;9.390;2022-12-20T05:54:43;98672.00;;;2.94;100.00
53719;BME280;39616;48.872;9.390;2022-12-20T05:57:13;98668.84;;;2.97;100.00
53719;BME280;39616;48.872;9.390;2022-12-20T05:59:45;98661.41;;;2.87;100.00
53719;BME280;39616;48.872;9.390;2022-12-20T06:02:15;98658.25;;;2.90;100.00
53719;BME280;39616;48.872;9.390;2022-12-20T06:04:45;98650.00;;;2.92;100.00
53719;BME280;39616;48.872;9.390;2022-12-20T06:07:15;98656.03;;;2.99;100.00
53719;BME280;39616;48.872;9.390;2022-12-20T06:09:46;98654.25;;;3.04;100.00
53719;BME280;39616;48.872;9.390;2022-12-20T06:12:16;98657.41;;;3.01;100.00
53719;BME280;39616;48.872;9.390;2022-12-20T06:14:46;98651.72;;;2.98;100.00
53719;BME280;39616;48.872;9.390;2022-12-20T06:17:17;98650.44;;;3.00;100.00
53719;BME280;39616;48.872;9.390;2022-12-20T06:19:49;98654.72;;;3.01;100.00
53719;BME280;39616;48.872;9.390;2022-12-20T06:22:19;98653.69;;;3.02;100.00
53719;BME280;39616;48.872;9.390;2022-12-20T06:24:49;98658.22;;;3.02;100.00
53719;BME280;39616;48.872;9.390;2022-12-20T06:27:19;98664.97;;;3.04;100.00
53719;BME280;39616;48.872;9.390;2022-12-20T06:29:52;98659.28;;;3.01;100.00
53719;BME280;39616;48.872;9.390;2022-12-20T06:32:23;98654.25;;;3.04;100.00
53719;BME280;39616;48.872;9.390;2022-12-20T06:34:53;98655.53;;;3.02;100.00
53719;BME280;39616;48.872;9.390;2022-12-20T06:37:23;98659.88;;;3.03;100.00
53719;BME280;39616;48.872;9.390;2022-12-20T06:39:54;98656.47;;;3.07;100.00
53719;BME280;39616;48.872;9.390;2022-12-20T06:42:24;98664.50;;;3.07;100.00
53719;BME280;39616;48.872;9.390;2022-12-20T06:44:54;98666.47;;;3.12;100.00
53719;BME280;39616;48.872;9.390;2022-12-20T06:47:25;98669.94;;;3.12;100.00
53719;BME280;39616;48.872;9.390;2022-12-20T06:49:55;98665.09;;;3.09;100.00
53719;BME280;39616;48.872;9.390;2022-12-20T06:52:25;98667.59;;;3.16;100.00
53719;BME280;39616;48.872;9.390;2022-12-20T06:54:56;98674.16;;;3.37;100.00
53719;BME280;39616;48.872;9.390;2022-12-20T06:57:26;98680.66;;;3.41;100.00
53719;BME280;39616;48.872;9.390;2022-12-20T06:59:56;98674.97;;;3.37;100.00
53719;BME280;39616;48.872;9.390;2022-12-20T07:02:27;98688.63;;;3.36;100.00
53719;BME280;39616;48.872;9.390;2022-12-20T07:04:57;98693.41;;;3.34;100.00
53719;BME280;39616;48.872;9.390;2022-12-20T07:07:27;98689.56;;;3.30;100.00
53719;BME280;39616;48.872;9.390;2022-12-20T07:09:57;98680.47;;;3.31;100.00
53719;BME280;39616;48.872;9.390;2022-12-20T07:12:28;98685.28;;;3.29;100.00
53719;BME280;39616;48.872;9.390;2022-12-20T07:14:58;98682.25;;;3.25;100.00
53719;BME280;39616;48.872;9.390;2022-12-20T07:17:29;98679.97;;;3.17;100.00
53719;BME280;39616;48.872;9.390;2022-12-20T07:19:59;98688.47;;;3.14;100.00
53719;BME280;39616;48.872;9.390;2022-12-20T07:22:29;98693.63;;;3.04;100.00
53719;BME280;39616;48.872;9.390;2022-12-20T07:25:00;98696.78;;;3.01;100.00
53719;BME280;39616;48.872;9.390;2022-12-20T07:27:30;98686.53;;;2.98;100.00
53719;BME280;39616;48.872;9.390;2022-12-20T07:30:01;98684.59;;;2.93;100.00
53719;BME280;39616;48.872;9.390;2022-12-20T07:32:31;98691.00;;;2.92;100.00
53719;BME280;39616;48.872;9.390;2022-12-20T07:35:02;98691.56;;;2.94;100.00
53719;BME280;39616;48.872;9.390;2022-12-20T07:37:32;98685.88;;;2.90;100.00
53719;BME280;39616;48.872;9.390;2022-12-20T07:40:03;98683.06;;;2.97;100.00
53719;BME280;39616;48.872;9.390;2022-12-20T07:42:34;98681.69;;;2.95;100.00
53719;BME280;39616;48.872;9.390;2022-12-20T07:45:05;98682.28;;;2.85;100.00
53719;BME280;39616;48.872;9.390;2022-12-20T07:47:35;98681.13;;;2.81;100.00
53719;BME280;39616;48.872;9.390;2022-12-20T07:50:06;98686.97;;;2.78;100.00
53719;BME280;39616;48.872;9.390;2022-12-20T07:52:38;98688.59;;;2.79;100.00
53719;BME280;39616;48.872;9.390;2022-12-20T07:55:09;98676.00;;;2.79;100.00
53719;BME280;39616;48.872;9.390;2022-12-20T07:57:44;98669.38;;;2.82;100.00
53719;BME280;39616;48.872;9.390;2022-12-20T08:00:16;98665.75;;;2.88;100.00
53719;BME280;39616;48.872;9.390;2022-12-20T08:02:52;98667.94;;;2.91;100.00
53719;BME280;39616;48.872;9.390;2022-12-20T08:05:24;98669.19;;;3.00;100.00
53719;BME280;39616;48.872;9.390;2022-12-20T08:07:57;98673.59;;;3.06;100.00
53719;BME280;39616;48.872;9.390;2022-12-20T08:10:28;98672.63;;;3.12;100.00
53719;BME280;39616;48.872;9.390;2022-12-20T08:12:59;98679.97;;;3.17;100.00
53719;BME280;39616;48.872;9.390;2022-12-20T08:15:33;98690.78;;;3.22;100.00
53719;BME280;39616;48.872;9.390;2022-12-20T08:18:04;98685.75;;;3.26;100.00
53719;BME280;39616;48.872;9.390;2022-12-20T08:20:35;98676.41;;;3.28;100.00
53719;BME280;39616;48.872;9.390;2022-12-20T08:23:05;98685.13;;;3.35;100.00
53719;BME280;39616;48.872;9.390;2022-12-20T08:25:35;98681.72;;;3.40;100.00
53719;BME280;39616;48.872;9.390;2022-12-20T08:28:06;98667.34;;;3.46;100.00
53719;BME280;39616;48.872;9.390;2022-12-20T08:30:36;98663.78;;;3.57;100.00
53719;BME280;39616;48.872;9.390;2022-12-20T08:33:07;98646.94;;;3.79;100.00
53719;BME280;39616;48.872;9.390;2022-12-20T08:35:37;98652.59;;;3.94;100.00
53719;BME280;39616;48.872;9.390;2022-12-20T08:38:07;98647.34;;;4.04;100.00
53719;BME280;39616;48.872;9.390;2022-12-20T08:40:37;98638.38;;;4.16;100.00
53719;BME280;39616;48.872;9.390;2022-12-20T08:43:08;98633.91;;;4.21;100.00
53719;BME280;39616;48.872;9.390;2022-12-20T08:45:38;98636.31;;;4.40;100.00
53719;BME280;39616;48.872;9.390;2022-12-20T08:48:08;98627.00;;;4.47;100.00
53719;BME280;39616;48.872;9.390;2022-12-20T08:50:39;98627.63;;;4.76;100.00
53719;BME280;39616;48.872;9.390;2022-12-20T08:53:09;98632.88;;;4.88;100.00
53719;BME280;39616;48.872;9.390;2022-12-20T08:55:39;98625.41;;;4.95;100.00
53719;BME280;39616;48.872;9.390;2022-12-20T08:58:09;98616.84;;;4.98;100.00
53719;BME280;39616;48.872;9.390;2022-12-20T09:00:40;98615.28;;;5.02;100.00
53719;BME280;39616;48.872;9.390;2022-12-20T09:03:11;98614.78;;;5.05;100.00
53719;BME280;39616;48.872;9.390;2022-12-20T09:05:46;98608.94;;;5.14;100.00
53719;BME280;39616;48.872;9.390;2022-12-20T09:08:16;98620.03;;;5.22;100.00
53719;BME280;39616;48.872;9.390;2022-12-20T09:10:47;98608.84;;;5.30;100.00
53719;BME280;39616;48.872;9.390;2022-12-20T09:13:17;98615.06;;;5.36;99.18
53719;BME280;39616;48.872;9.390;2022-12-20T09:15:47;98614.06;;;5.42;97.77
53719;BME280;39616;48.872;9.390;2022-12-20T09:18:18;98618.97;;;5.50;97.60
53719;BME280;39616;48.872;9.390;2022-12-20T09:20:48;98616.56;;;5.54;97.05
53719;BME280;39616;48.872;9.390;2022-12-20T09:23:18;98616.88;;;5.57;96.61
53719;BME280;39616;48.872;9.390;2022-12-20T09:25:49;98615.56;;;5.60;95.75
53719;BME280;39616;48.872;9.390;2022-12-20T09:28:19;98610.47;;;5.64;96.43
53719;BME280;39616;48.872;9.390;2022-12-20T09:30:49;98593.84;;;5.72;95.82
53719;BME280;39616;48.872;9.390;2022-12-20T09:33:20;98595.75;;;5.76;95.87
53719;BME280;39616;48.872;9.390;2022-12-20T09:35:50;98588.78;;;5.80;96.13
53719;BME280;39616;48.872;9.390;2022-12-20T09:38:20;98598.22;;;5.83;95.72
53719;BME280;39616;48.872;9.390;2022-12-20T09:40:56;98608.78;;;5.90;96.17
53719;BME280;39616;48.872;9.390;2022-12-20T09:43:27;98600.19;;;5.93;95.14
53719;BME280;39616;48.872;9.390;2022-12-20T09:46:00;98591.59;;;5.96;94.54
53719;BME280;39616;48.872;9.390;2022-12-20T09:48:33;98593.25;;;5.97;94.45
53719;BME280;39616;48.872;9.390;2022-12-20T09:57:26;98566.56;;;5.95;93.57
53719;BME280;39616;48.872;9.390;2022-12-20T09:59:59;98569.03;;;5.97;94.40
53719;BME280;39616;48.872;9.390;2022-12-20T10:02:29;98565.84;;;6.10;93.65
53719;BME280;39616;48.872;9.390;2022-12-20T10:05:00;98560.22;;;6.12;93.43
53719;BME280;39616;48.872;9.390;2022-12-20T10:07:59;98559.72;;;6.20;92.65
53719;BME280;39616;48.872;9.390;2022-12-20T10:22:08;98560.91;;;6.49;90.62
53719;BME280;39616;48.872;9.390;2022-12-20T10:24:44;98552.53;;;6.41;90.54
53719;BME280;39616;48.872;9.390;2022-12-20T10:27:20;98555.25;;;6.41;91.15
53719;BME280;39616;48.872;9.390;2022-12-20T10:29:50;98553.34;;;6.41;90.98
53719;BME280;39616;48.872;9.390;2022-12-20T10:32:22;98557.66;;;6.47;90.18
53719;BME280;39616;48.872;9.390;2022-12-20T10:35:00;98537.75;;;6.48;89.82
53719;BME280;39616;48.872;9.390;2022-12-20T10:38:04;98550.94;;;6.55;89.24
53719;BME280;39616;48.872;9.390;2022-12-20T10:40:38;98543.19;;;6.64;88.91
53719;BME280;39616;48.872;9.390;2022-12-20T10:43:20;98544.25;;;6.63;88.58
53719;BME280;39616;48.872;9.390;2022-12-20T10:48:31;98548.56;;;6.64;88.78
53719;BME280;39616;48.872;9.390;2022-12-20T10:53:32;98540.47;;;6.59;88.05
53719;BME280;39616;48.872;9.390;2022-12-20T10:56:12;98533.22;;;6.59;87.91
53719;BME280;39616;48.872;9.390;2022-12-20T11:01:32;98531.84;;;6.57;88.40
53719;BME280;39616;48.872;9.390;2022-12-20T11:04:06;98526.72;;;6.55;89.10
53719;BME280;39616;48.872;9.390;2022-12-20T11:06:50;98524.28;;;6.59;88.79
53719;BME280;39616;48.872;9.390;2022-12-20T11:09:32;98506.50;;;6.58;88.93
53719;BME280;39616;48.872;9.390;2022-12-20T11:12:15;98510.81;;;6.59;89.12
53719;BME280;39616;48.872;9.390;2022-12-20T11:14:46;98517.56;;;6.61;89.62
53719;BME280;39616;48.872;9.390;2022-12-20T11:17:31;98507.34;;;6.63;89.04
53719;BME280;39616;48.872;9.390;2022-12-20T11:20:34;98501.16;;;6.68;89.02
53719;BME280;39616;48.872;9.390;2022-12-20T11:34:53;98498.22;;;6.95;87.60
53719;BME280;39616;48.872;9.390;2022-12-20T11:37:38;98490.16;;;7.00;87.09
53719;BME280;39616;48.872;9.390;2022-12-20T11:41:03;98478.56;;;7.05;87.24
53719;BME280;39616;48.872;9.390;2022-12-20T11:49:14;98472.09;;;7.26;84.32
53719;BME280;39616;48.872;9.390;2022-12-20T11:52:23;98475.03;;;7.30;84.52
53719;BME280;39616;48.872;9.390;2022-12-20T11:55:26;98465.06;;;7.30;84.97
53719;BME280;39616;48.872;9.390;2022-12-20T11:58:00;98454.81;;;7.27;85.17
53719;BME280;39616;48.872;9.390;2022-12-20T12:00:32;98451.03;;;7.28;85.49
53719;BME280;39616;48.872;9.390;2022-12-20T12:03:26;98439.97;;;7.24;86.00
53719;BME280;39616;48.872;9.390;2022-12-20T12:06:21;98444.03;;;7.22;85.69
53719;BME280;39616;48.872;9.390;2022-12-20T12:09:19;98440.53;;;7.26;86.11
53719;BME280;39616;48.872;9.390;2022-12-20T12:12:00;98422.47;;;7.22;85.89
53719;BME280;39616;48.872;9.390;2022-12-20T12:14:37;98424.91;;;7.18;86.78
53719;BME280;39616;48.872;9.390;2022-12-20T12:17:17;98445.09;;;7.21;85.63
53719;BME280;39616;48.872;9.390;2022-12-20T12:19:52;98449.69;;;7.15;85.42
53719;BME280;39616;48.872;9.390;2022-12-20T12:22:29;98453.47;;;7.14;85.59
53719;BME280;39616;48.872;9.390;2022-12-20T12:25:08;98456.19;;;7.14;84.75
53719;BME280;39616;48.872;9.390;2022-12-20T12:27:43;98436.22;;;7.15;84.87
53719;BME280;39616;48.872;9.390;2022-12-20T12:30:14;98440.81;;;7.15;84.94
53719;BME280;39616;48.872;9.390;2022-12-20T12:32:55;98431.06;;;7.14;85.18
53719;BME280;39616;48.872;9.390;2022-12-20T12:35:54;98426.50;;;7.19;85.31
53719;BME280;39616;48.872;9.390;2022-12-20T12:47:44;98404.06;;;7.44;84.72
53719;BME280;39616;48.872;9.390;2022-12-20T12:50:32;98411.59;;;7.53;84.11
53719;BME280;39616;48.872;9.390;2022-12-20T12:53:13;98421.03;;;7.60;83.84
53719;BME280;39616;48.872;9.390;2022-12-20T12:55:49;98411.81;;;7.71;83.22
53719;BME280;39616;48.872;9.390;2022-12-20T13:01:07;98411.44;;;7.93;83.28
53719;BME280;39616;48.872;9.390;2022-12-20T13:11:30;98372.13;;;8.27;81.30
53719;BME280;39616;48.872;9.390;2022-12-20T13:16:47;98357.25;;;8.29;81.66
53719;BME280;39616;48.872;9.390;2022-12-20T13:25:02;98360.19;;;8.38;80.15
53719;BME280;39616;48.872;9.390;2022-12-20T13:27:53;98354.00;;;8.27;79.70
53719;BME280;39616;48.872;9.390;2022-12-20T13:30:24;98357.75;;;8.31;79.15
53719;BME280;39616;48.872;9.390;2022-12-20T13:33:13;98363.19;;;8.26;79.75
53719;BME280;39616;48.872;9.390;2022-12-20T13:35:57;98365.97;;;8.16;80.74
53719;BME280;39616;48.872;9.390;2022-12-20T13:41:33;98378.22;;;7.98;81.51
53719;BME280;39616;48.872;9.390;2022-12-20T13:44:17;98382.81;;;7.97;81.81
53719;BME280;39616;48.872;9.390;2022-12-20T13:47:02;98377.19;;;7.84;81.73
53719;BME280;39616;48.872;9.390;2022-12-20T13:49:40;98379.63;;;7.80;82.18
53719;BME280;39616;48.872;9.390;2022-12-20T13:54:43;98377.56;;;7.67;83.24
53719;BME280;39616;48.872;9.390;2022-12-20T13:57:57;98381.84;;;7.68;83.16
53719;BME280;39616;48.872;9.390;2022-12-20T14:00:25;98376.44;;;7.73;82.76
53719;BME280;39616;48.872;9.390;2022-12-20T14:02:56;98366.97;;;7.75;82.55
53719;BME280;39616;48.872;9.390;2022-12-20T14:05:31;98366.13;;;7.80;82.16
53719;BME280;39616;48.872;9.390;2022-12-20T14:08:06;98358.84;;;7.86;81.99
53719;BME280;39616;48.872;9.390;2022-12-20T14:10:37;98358.53;;;7.92;81.61
53719;BME280;39616;48.872;9.390;2022-12-20T14:13:23;98344.69;;;8.04;80.70
53719;BME280;39616;48.872;9.390;2022-12-20T14:15:53;98338.00;;;7.91;81.42
53719;BME280;39616;48.872;9.390;2022-12-20T14:18:25;98332.09;;;7.89;81.54
53719;BME280;39616;48.872;9.390;2022-12-20T14:20:58;98330.41;;;7.98;80.74
53719;BME280;39616;48.872;9.390;2022-12-20T14:23:37;98324.44;;;8.07;80.19
53719;BME280;39616;48.872;9.390;2022-12-20T14:26:12;98327.44;;;7.95;80.91
53719;BME280;39616;48.872;9.390;2022-12-20T14:28:47;98328.84;;;7.87;81.32
53719;BME280;39616;48.872;9.390;2022-12-20T14:31:44;98322.41;;;7.83;81.91
53719;BME280;39616;48.872;9.390;2022-12-20T14:34:21;98325.09;;;7.83;81.83
53719;BME280;39616;48.872;9.390;2022-12-20T14:42:54;98299.50;;;7.75;82.49
53719;BME280;39616;48.872;9.390;2022-12-20T14:45:26;98300.03;;;7.72;82.95
53719;BME280;39616;48.872;9.390;2022-12-20T14:48:00;98307.63;;;7.65;82.83
53719;BME280;39616;48.872;9.390;2022-12-20T14:53:22;98309.81;;;7.58;82.90
53719;BME280;39616;48.872;9.390;2022-12-20T14:55:54;98310.91;;;7.57;82.81
53719;BME280;39616;48.872;9.390;2022-12-20T14:58:27;98317.66;;;7.55;82.84
53719;BME280;39616;48.872;9.390;2022-12-20T15:01:12;98318.75;;;7.54;83.48
53719;BME280;39616;48.872;9.390;2022-12-20T15:03:57;98318.31;;;7.31;85.87
53719;BME280;39616;48.872;9.390;2022-12-20T15:09:03;98312.72;;;7.12;86.21
53719;BME280;39616;48.872;9.390;2022-12-20T15:11:35;98303.81;;;7.07;86.83
53719;BME280;39616;48.872;9.390;2022-12-20T15:16:51;98297.34;;;7.02;86.79